createdAt,value
2022-09-20T00:00:13.662Z,16.85
2022-09-20T00:01:21.083Z,16.84
2022-09-20T00:02:22.632Z,16.85
2022-09-20T00:03:24.119Z,16.84
2022-09-20T00:04:25.570Z,16.84
2022-09-20T00:05:27.102Z,16.84
2022-09-20T00:06:29.326Z,16.84
2022-09-20T00:07:30.910Z,16.83
2022-09-20T00:08:32.440Z,16.82
2022-09-20T00:09:33.986Z,16.81
2022-09-20T00:10:39.378Z,16.71
2022-09-20T00:11:40.874Z,16.81
2022-09-20T00:12:42.344Z,16.80
2022-09-20T00:13:44.381Z,16.81
2022-09-20T00:14:45.886Z,16.80
2022-09-20T00:15:47.354Z,16.79
2022-09-20T00:16:48.859Z,16.81
2022-09-20T00:17:50.655Z,16.79
2022-09-20T00:18:52.607Z,16.80
2022-09-20T00:19:54.096Z,16.80
2022-09-20T00:20:55.578Z,16.80
2022-09-20T00:21:57.023Z,16.80
2022-09-20T00:22:58.531Z,16.77
2022-09-20T00:24:00.061Z,16.77
2022-09-20T00:25:01.603Z,16.77
2022-09-20T00:26:03.457Z,16.76
2022-09-20T00:27:04.954Z,16.75
2022-09-20T00:28:06.523Z,16.75
2022-09-20T00:29:07.981Z,16.76
2022-09-20T00:30:09.769Z,16.75
2022-09-20T00:31:11.265Z,16.76
2022-09-20T00:32:12.789Z,16.76
2022-09-20T00:33:14.368Z,16.75
2022-09-20T00:34:50.933Z,16.75
2022-09-20T00:35:52.406Z,16.74
2022-09-20T00:36:53.986Z,16.73
2022-09-20T00:37:55.510Z,16.73
2022-09-20T00:38:57.564Z,16.72
2022-09-20T00:39:59.042Z,16.72
2022-09-20T00:41:00.538Z,16.71
2022-09-20T00:42:02.068Z,16.70
2022-09-20T00:43:03.530Z,16.70
2022-09-20T00:44:23.627Z,16.70
2022-09-20T00:45:28.769Z,16.70
2022-09-20T00:46:33.326Z,16.69
2022-09-20T00:47:44.693Z,16.70
2022-09-20T00:48:46.369Z,16.69
2022-09-20T00:49:48.139Z,16.69
2022-09-20T00:50:51.132Z,16.68
2022-09-20T00:51:55.362Z,16.69
2022-09-20T00:53:17.091Z,16.69
2022-09-20T00:54:20.506Z,16.69
2022-09-20T00:55:22.285Z,16.68
2022-09-20T00:56:27.947Z,16.70
2022-09-20T00:57:35.147Z,16.69
2022-09-20T00:58:37.953Z,16.69
2022-09-20T00:59:40.226Z,16.70
2022-09-20T01:00:42.294Z,16.69
2022-09-20T01:01:44.420Z,16.68
2022-09-20T01:02:46.952Z,16.66
2022-09-20T01:03:48.977Z,16.67
2022-09-20T01:04:50.431Z,16.66
2022-09-20T01:05:52.070Z,16.67
2022-09-20T01:06:54.015Z,16.67
2022-09-20T01:07:55.470Z,16.68
2022-09-20T01:08:57.291Z,16.66
2022-09-20T01:09:58.726Z,16.67
2022-09-20T01:11:00.223Z,16.66
2022-09-20T01:12:02.479Z,16.67
2022-09-20T01:13:05.655Z,16.67
2022-09-20T01:14:07.254Z,16.66
2022-09-20T01:15:08.998Z,16.66
2022-09-20T01:16:10.470Z,16.66
2022-09-20T01:17:11.994Z,16.65
2022-09-20T01:18:13.487Z,16.64
2022-09-20T01:19:35.686Z,16.64
2022-09-20T01:20:38.880Z,16.63
2022-09-20T01:21:40.415Z,16.63
2022-09-20T01:22:47.706Z,16.62
2022-09-20T01:23:49.130Z,16.63
2022-09-20T01:25:00.407Z,16.62
2022-09-20T01:26:20.248Z,16.61
2022-09-20T01:27:23.415Z,16.60
2022-09-20T01:28:25.078Z,16.59
2022-09-20T01:29:29.596Z,16.58
2022-09-20T01:30:38.005Z,16.56
2022-09-20T01:31:42.028Z,16.55
2022-09-20T01:33:02.676Z,16.54
2022-09-20T01:34:05.315Z,16.51
2022-09-20T01:35:06.990Z,16.51
2022-09-20T01:36:08.516Z,16.51
2022-09-20T01:37:28.527Z,16.50
2022-09-20T01:38:34.407Z,16.50
2022-09-20T01:39:36.681Z,16.48
2022-09-20T01:40:50.309Z,16.48
2022-09-20T01:41:51.986Z,16.48
2022-09-20T01:42:58.905Z,16.47
2022-09-20T01:44:10.063Z,16.45
2022-09-20T01:45:17.509Z,16.43
2022-09-20T01:46:22.329Z,16.42
2022-09-20T01:47:42.569Z,16.41
2022-09-20T01:48:44.248Z,16.40
2022-09-20T01:49:51.621Z,16.36
2022-09-20T01:51:05.275Z,16.35
2022-09-20T01:52:15.734Z,16.35
2022-09-20T01:53:35.701Z,16.34
2022-09-20T01:54:37.129Z,16.33
2022-09-20T01:55:49.411Z,16.34
2022-09-20T01:56:57.501Z,16.29
2022-09-20T01:58:17.505Z,16.29
2022-09-20T01:59:24.472Z,16.26
2022-09-20T02:00:26.646Z,16.24
2022-09-20T02:01:46.707Z,16.23
2022-09-20T02:03:00.107Z,16.19
2022-09-20T02:04:14.035Z,16.19
2022-09-20T02:05:15.437Z,16.17
2022-09-20T02:06:16.850Z,16.15
2022-09-20T02:07:21.122Z,16.14
2022-09-20T02:08:37.475Z,16.14
2022-09-20T02:09:46.383Z,16.13
2022-09-20T02:10:47.930Z,16.11
2022-09-20T02:12:08.246Z,16.09
2022-09-20T02:13:29.295Z,16.08
2022-09-20T02:14:43.022Z,16.07
2022-09-20T02:15:47.532Z,16.05
2022-09-20T02:16:54.705Z,16.04
2022-09-20T02:18:02.035Z,16.03
2022-09-20T02:19:15.518Z,16.00
2022-09-20T02:20:35.858Z,16.00
2022-09-20T02:21:37.483Z,15.97
2022-09-20T02:22:41.581Z,15.96
2022-09-20T02:23:52.668Z,15.95
2022-09-20T02:25:03.396Z,15.93
2022-09-20T02:26:05.069Z,15.82
2022-09-20T02:27:24.901Z,15.89
2022-09-20T02:28:45.080Z,15.87
2022-09-20T02:29:48.718Z,15.85
2022-09-20T02:30:50.142Z,15.83
2022-09-20T02:31:55.857Z,15.82
2022-09-20T02:33:06.667Z,15.82
2022-09-20T02:34:26.595Z,15.80
2022-09-20T02:35:54.383Z,15.78
2022-09-20T02:36:59.368Z,15.76
2022-09-20T02:38:07.021Z,15.74
2022-09-20T02:39:20.712Z,15.73
2022-09-20T02:40:40.786Z,15.72
2022-09-20T02:41:55.662Z,15.70
2022-09-20T02:43:15.908Z,15.68
2022-09-20T02:44:28.834Z,15.67
2022-09-20T02:45:34.359Z,15.64
2022-09-20T02:46:35.808Z,15.63
2022-09-20T02:47:37.934Z,15.62
2022-09-20T02:48:43.502Z,15.59
2022-09-20T02:50:13.845Z,15.58
2022-09-20T02:51:21.386Z,15.56
2022-09-20T02:52:28.071Z,15.54
2022-09-20T02:53:48.060Z,15.54
2022-09-20T02:55:00.894Z,15.52
2022-09-20T02:56:08.722Z,15.50
2022-09-20T02:57:26.724Z,15.47
2022-09-20T02:58:31.115Z,15.46
2022-09-20T02:59:35.716Z,15.43
2022-09-20T03:00:42.283Z,15.41
2022-09-20T03:01:52.708Z,15.40
2022-09-20T03:03:08.839Z,15.38
2022-09-20T03:04:10.349Z,15.38
2022-09-20T03:05:26.052Z,15.36
2022-09-20T03:06:30.211Z,15.34
2022-09-20T03:07:37.343Z,15.33
2022-09-20T03:08:57.411Z,15.32
2022-09-20T03:10:15.336Z,15.31
2022-09-20T03:11:27.434Z,15.27
2022-09-20T03:12:37.942Z,15.25
2022-09-20T03:13:42.531Z,15.24
2022-09-20T03:14:49.955Z,15.21
2022-09-20T03:16:00.518Z,15.17
2022-09-20T03:17:04.635Z,15.14
2022-09-20T03:18:14.941Z,15.08
2022-09-20T03:19:28.466Z,15.06
2022-09-20T03:20:29.924Z,15.05
2022-09-20T03:21:34.407Z,15.06
2022-09-20T03:22:38.648Z,15.05
2022-09-20T03:23:52.237Z,15.05
2022-09-20T03:25:12.323Z,15.00
2022-09-20T03:26:32.333Z,14.98
2022-09-20T03:27:42.130Z,14.95
2022-09-20T03:28:49.577Z,14.97
2022-09-20T03:30:01.007Z,14.95
2022-09-20T03:31:05.549Z,14.93
2022-09-20T03:32:25.895Z,14.92
2022-09-20T03:33:27.318Z,14.93
2022-09-20T03:34:47.599Z,14.92
2022-09-20T03:36:10.951Z,14.91
2022-09-20T03:37:18.511Z,14.89
2022-09-20T03:38:35.334Z,14.89
2022-09-20T03:39:39.710Z,14.88
2022-09-20T03:40:47.387Z,14.86
2022-09-20T03:41:58.040Z,14.85
2022-09-20T03:43:14.858Z,14.82
2022-09-20T03:44:16.281Z,14.81
2022-09-20T03:45:30.377Z,14.80
2022-09-20T03:46:31.830Z,14.79
2022-09-20T03:47:42.861Z,14.79
2022-09-20T03:48:44.400Z,14.75
2022-09-20T03:49:52.998Z,14.69
2022-09-20T03:51:12.848Z,14.69
2022-09-20T03:52:29.923Z,14.68
2022-09-20T03:53:31.396Z,14.65
2022-09-20T03:54:51.818Z,14.61
2022-09-20T03:55:59.047Z,14.59
2022-09-20T03:57:00.615Z,14.58
2022-09-20T03:58:09.181Z,14.59
2022-09-20T03:59:10.756Z,14.55
2022-09-20T04:00:15.155Z,14.56
2022-09-20T04:01:16.681Z,14.55
2022-09-20T04:02:18.227Z,14.55
2022-09-20T04:03:25.076Z,14.56
2022-09-20T04:04:32.381Z,14.55
2022-09-20T04:05:33.841Z,14.54
2022-09-20T04:06:38.050Z,14.54
2022-09-20T04:08:12.445Z,14.54
2022-09-20T04:09:13.873Z,14.53
2022-09-20T04:10:17.128Z,14.53
2022-09-20T04:11:21.355Z,14.53
2022-09-20T04:12:30.821Z,14.53
2022-09-20T04:13:39.572Z,14.54
2022-09-20T04:14:41.545Z,14.53
2022-09-20T04:16:01.395Z,14.53
2022-09-20T04:17:11.855Z,14.52
2022-09-20T04:18:28.361Z,14.51
2022-09-20T04:19:33.187Z,14.51
2022-09-20T04:20:55.443Z,14.50
2022-09-20T04:21:57.534Z,14.50
2022-09-20T04:23:00.702Z,14.49
2022-09-20T04:24:07.933Z,14.50
2022-09-20T04:25:17.465Z,14.49
2022-09-20T04:26:21.235Z,14.49
2022-09-20T04:27:24.034Z,14.47
2022-09-20T04:28:26.924Z,14.48
2022-09-20T04:30:00.829Z,14.46
2022-09-20T04:31:14.333Z,14.45
2022-09-20T04:32:16.121Z,14.43
2022-09-20T04:33:20.917Z,14.43
2022-09-20T04:34:48.800Z,14.41
2022-09-20T04:36:27.677Z,14.38
2022-09-20T04:37:33.463Z,14.37
2022-09-20T04:38:35.795Z,14.37
2022-09-20T04:39:43.052Z,14.35
2022-09-20T04:40:56.358Z,14.35
2022-09-20T04:42:16.692Z,14.36
2022-09-20T04:43:36.762Z,14.35
2022-09-20T04:44:50.135Z,14.36
2022-09-20T04:45:57.941Z,14.37
2022-09-20T04:47:00.014Z,14.37
2022-09-20T04:48:20.279Z,14.35
2022-09-20T04:49:39.454Z,14.36
2022-09-20T04:50:49.714Z,14.37
2022-09-20T04:51:54.390Z,14.37
2022-09-20T04:53:15.221Z,14.38
2022-09-20T04:54:34.794Z,14.38
2022-09-20T04:55:56.137Z,14.39
2022-09-20T04:57:05.695Z,14.39
2022-09-20T04:58:30.506Z,14.40
2022-09-20T04:59:40.876Z,14.41
2022-09-20T05:01:01.054Z,14.40
2022-09-20T05:02:12.621Z,14.40
2022-09-20T05:03:24.558Z,14.40
2022-09-20T05:04:40.561Z,14.41
2022-09-20T05:05:48.027Z,14.41
2022-09-20T05:06:52.507Z,14.41
2022-09-20T05:08:14.245Z,14.41
2022-09-20T05:09:21.894Z,14.40
2022-09-20T05:10:34.962Z,14.41
2022-09-20T05:11:56.594Z,14.42
2022-09-20T05:13:05.349Z,14.42
2022-09-20T05:14:25.275Z,14.43
2022-09-20T05:15:34.188Z,14.43
2022-09-20T05:16:47.029Z,14.44
2022-09-20T05:17:51.901Z,14.45
2022-09-20T05:18:56.419Z,14.47
2022-09-20T05:20:09.978Z,14.47
2022-09-20T05:21:14.604Z,14.49
2022-09-20T05:22:36.339Z,14.51
2022-09-20T05:23:43.995Z,14.52
2022-09-20T05:25:07.329Z,14.52
2022-09-20T05:26:08.961Z,14.54
2022-09-20T05:27:10.973Z,14.55
2022-09-20T05:28:15.609Z,14.55
2022-09-20T05:29:23.354Z,14.56
2022-09-20T05:30:24.807Z,14.54
2022-09-20T05:31:33.909Z,14.55
2022-09-20T05:32:44.675Z,14.55
2022-09-20T05:34:05.829Z,14.57
2022-09-20T05:35:22.795Z,14.57
2022-09-20T05:36:34.681Z,14.59
2022-09-20T05:37:55.469Z,14.61
2022-09-20T05:39:09.302Z,14.60
2022-09-20T05:40:12.050Z,14.61
2022-09-20T05:41:19.721Z,14.63
2022-09-20T05:42:24.625Z,14.65
2022-09-20T05:43:36.000Z,14.66
2022-09-20T05:44:37.441Z,14.68
2022-09-20T05:45:57.867Z,14.70
2022-09-20T05:47:11.679Z,14.73
2022-09-20T05:48:14.196Z,14.75
2022-09-20T05:49:34.537Z,14.77
2022-09-20T05:50:42.249Z,14.79
2022-09-20T05:51:43.906Z,14.81
2022-09-20T05:52:45.510Z,14.81
2022-09-20T05:54:01.564Z,14.83
2022-09-20T05:55:14.630Z,14.85
2022-09-20T05:56:28.526Z,14.87
2022-09-20T05:57:48.865Z,14.88
2022-09-20T05:59:25.927Z,14.90
2022-09-20T06:00:29.760Z,14.92
2022-09-20T06:01:33.991Z,14.92
2022-09-20T06:02:54.238Z,14.92
2022-09-20T06:03:59.712Z,14.93
2022-09-20T06:05:09.895Z,14.92
2022-09-20T06:06:32.758Z,14.95
2022-09-20T06:07:39.354Z,14.95
2022-09-20T06:08:59.634Z,14.98
2022-09-20T06:10:13.389Z,15.00
2022-09-20T06:11:21.978Z,15.00
2022-09-20T06:12:38.603Z,15.02
2022-09-20T06:14:18.254Z,15.04
2022-09-20T06:15:21.500Z,15.06
2022-09-20T06:16:28.521Z,15.08
2022-09-20T06:17:32.920Z,15.10
2022-09-20T06:18:34.384Z,15.12
2022-09-20T06:19:35.783Z,15.14
2022-09-20T06:20:43.067Z,15.16
2022-09-20T06:21:50.486Z,15.18
2022-09-20T06:22:54.430Z,15.22
2022-09-20T06:23:59.027Z,15.21
2022-09-20T06:25:09.728Z,15.26
2022-09-20T06:26:14.872Z,15.27
2022-09-20T06:27:22.021Z,15.28
2022-09-20T06:28:24.544Z,15.30
2022-09-20T06:29:29.718Z,15.18
2022-09-20T06:30:31.723Z,15.32
2022-09-20T06:31:33.227Z,15.34
2022-09-20T06:32:34.763Z,15.34
2022-09-20T06:33:40.475Z,15.36
2022-09-20T06:34:42.027Z,15.38
2022-09-20T06:35:45.456Z,15.40
2022-09-20T06:37:06.940Z,15.41
2022-09-20T06:38:45.398Z,15.43
2022-09-20T06:40:14.611Z,15.45
2022-09-20T06:41:28.155Z,15.46
2022-09-20T06:42:29.724Z,15.49
2022-09-20T06:43:31.586Z,15.50
2022-09-20T06:44:33.047Z,15.52
2022-09-20T06:45:34.770Z,15.53
2022-09-20T06:46:36.309Z,15.54
2022-09-20T06:47:38.902Z,15.57
2022-09-20T06:48:40.495Z,15.59
2022-09-20T06:49:42.466Z,15.62
2022-09-20T06:50:45.401Z,15.65
2022-09-20T06:51:47.149Z,15.68
2022-09-20T06:52:49.281Z,15.71
2022-09-20T06:53:50.803Z,15.72
2022-09-20T06:54:54.166Z,15.75
2022-09-20T06:55:55.626Z,15.77
2022-09-20T06:56:57.259Z,15.80
2022-09-20T06:57:58.751Z,15.81
2022-09-20T06:59:00.218Z,15.84
2022-09-20T07:00:02.337Z,15.87
2022-09-20T07:01:03.898Z,15.88
2022-09-20T07:02:05.474Z,15.91
2022-09-20T07:03:07.163Z,15.94
2022-09-20T07:04:09.723Z,15.98
2022-09-20T07:05:13.719Z,16.01
2022-09-20T07:06:19.794Z,16.05
2022-09-20T07:07:21.395Z,16.10
2022-09-20T07:08:22.938Z,16.13
2022-09-20T07:09:24.363Z,16.18
2022-09-20T07:10:28.057Z,16.22
2022-09-20T07:11:29.872Z,16.27
2022-09-20T07:12:33.977Z,16.31
2022-09-20T07:13:36.146Z,16.35
2022-09-20T07:14:37.735Z,16.39
2022-09-20T07:15:39.222Z,16.43
2022-09-20T07:16:40.784Z,16.49
2022-09-20T07:17:45.254Z,16.53
2022-09-20T07:18:46.935Z,16.57
2022-09-20T07:19:48.399Z,16.63
2022-09-20T07:20:49.953Z,16.67
2022-09-20T07:21:51.460Z,16.70
2022-09-20T07:22:53.680Z,16.74
2022-09-20T07:23:55.283Z,16.77
2022-09-20T07:24:56.819Z,16.80
2022-09-20T07:26:00.709Z,16.81
2022-09-20T07:27:02.737Z,16.83
2022-09-20T07:28:04.272Z,16.83
2022-09-20T07:29:07.799Z,16.84
2022-09-20T07:30:10.401Z,16.87
2022-09-20T07:31:11.882Z,16.88
2022-09-20T07:32:13.386Z,16.90
2022-09-20T07:33:21.552Z,16.91
2022-09-20T07:34:23.042Z,16.95
2022-09-20T07:35:25.151Z,16.96
2022-09-20T07:36:26.602Z,16.99
2022-09-20T07:37:28.105Z,16.99
2022-09-20T07:38:29.584Z,17.01
2022-09-20T07:39:31.059Z,17.02
2022-09-20T07:40:32.641Z,17.03
2022-09-20T07:41:34.137Z,17.04
2022-09-20T07:42:35.576Z,17.05
2022-09-20T07:43:37.134Z,17.07
2022-09-20T07:44:42.293Z,17.08
2022-09-20T07:45:43.734Z,17.10
2022-09-20T07:46:48.040Z,17.11
2022-09-20T07:47:49.785Z,17.11
2022-09-20T07:48:51.424Z,17.13
2022-09-20T07:49:53.074Z,17.13
2022-09-20T07:50:55.422Z,17.14
2022-09-20T07:51:56.965Z,17.15
2022-09-20T07:52:58.474Z,17.15
2022-09-20T07:54:00.026Z,17.17
2022-09-20T07:55:01.520Z,17.18
2022-09-20T07:56:03.110Z,17.18
2022-09-20T07:57:05.681Z,17.20
2022-09-20T07:58:07.170Z,17.20
2022-09-20T07:59:10.227Z,17.22
2022-09-20T08:00:11.843Z,17.23
2022-09-20T08:01:16.165Z,17.24
2022-09-20T08:02:17.753Z,17.26
2022-09-20T08:03:19.881Z,17.26
2022-09-20T08:04:21.326Z,17.28
2022-09-20T08:05:22.760Z,17.29
2022-09-20T08:06:24.291Z,17.30
2022-09-20T08:07:25.714Z,17.32
2022-09-20T08:08:27.570Z,17.34
2022-09-20T08:09:29.012Z,17.35
2022-09-20T08:10:31.069Z,17.37
2022-09-20T08:11:32.606Z,17.39
2022-09-20T08:14:11.334Z,17.46
2022-09-20T08:15:12.843Z,17.50
2022-09-20T08:16:14.742Z,17.54
2022-09-20T08:17:16.393Z,17.58
2022-09-20T08:18:17.886Z,17.62
2022-09-20T08:19:20.567Z,17.67
2022-09-20T08:20:22.029Z,17.70
2022-09-20T08:21:24.050Z,17.75
2022-09-20T08:22:25.533Z,17.80
2022-09-20T08:23:26.999Z,17.80
2022-09-20T08:24:28.499Z,17.82
2022-09-20T08:25:29.963Z,17.85
2022-09-20T08:26:31.725Z,17.88
2022-09-20T08:27:33.303Z,17.90
2022-09-20T08:28:34.781Z,17.94
2022-09-20T08:29:36.470Z,17.99
2022-09-20T08:30:37.898Z,18.02
2022-09-20T08:31:40.206Z,18.06
2022-09-20T08:32:41.918Z,18.08
2022-09-20T08:33:43.466Z,18.11
2022-09-20T08:34:49.360Z,18.14
2022-09-20T08:35:51.007Z,18.18
2022-09-20T08:36:56.511Z,18.19
2022-09-20T08:39:57.150Z,18.18
2022-09-20T08:40:40.965Z,18.26
2022-09-20T08:41:43.826Z,18.25
2022-09-20T08:42:45.367Z,18.27
2022-09-20T08:43:46.891Z,18.30
2022-09-20T08:44:59.998Z,18.35
2022-09-20T08:46:05.488Z,18.35
2022-09-20T08:47:09.885Z,18.38
2022-09-20T08:48:14.441Z,18.44
2022-09-20T08:49:28.159Z,18.48
2022-09-20T08:50:29.603Z,18.49
2022-09-20T08:51:32.554Z,18.52
2022-09-20T08:52:36.915Z,18.56
2022-09-20T08:53:40.354Z,18.62
2022-09-20T08:54:43.525Z,18.65
2022-09-20T08:55:44.975Z,18.68
2022-09-20T08:56:48.282Z,18.76
2022-09-20T08:57:50.678Z,18.82
2022-09-20T08:58:53.190Z,18.90
2022-09-20T08:59:54.775Z,18.99
2022-09-20T09:00:58.242Z,19.11
2022-09-20T09:02:00.029Z,19.29
2022-09-20T09:03:04.350Z,19.43
2022-09-20T09:04:11.699Z,19.59
2022-09-20T09:05:26.359Z,19.76
2022-09-20T09:06:27.867Z,19.85
2022-09-20T09:07:29.306Z,19.90
2022-09-20T09:08:37.560Z,19.99
2022-09-20T09:09:41.264Z,20.05
2022-09-20T09:10:43.575Z,20.07
2022-09-20T09:11:46.211Z,20.10
2022-09-20T09:12:48.821Z,20.11
2022-09-20T09:14:30.150Z,20.14
2022-09-20T09:15:33.085Z,20.21
2022-09-20T09:16:36.276Z,20.27
2022-09-20T09:17:37.959Z,20.36
2022-09-20T09:18:39.767Z,20.37
2022-09-20T09:19:51.380Z,20.42
2022-09-20T09:20:52.923Z,20.51
2022-09-20T09:22:01.484Z,20.64
2022-09-20T09:23:06.806Z,20.76
2022-09-20T09:24:13.804Z,20.80
2022-09-20T09:25:16.917Z,20.86
2022-09-20T09:26:24.554Z,20.90
2022-09-20T09:27:26.431Z,20.92
2022-09-20T09:28:31.646Z,20.94
2022-09-20T09:29:34.980Z,20.93
2022-09-20T09:30:36.581Z,20.94
2022-09-20T09:31:39.662Z,20.93
2022-09-20T09:32:41.345Z,20.92
2022-09-20T09:33:43.287Z,20.89
2022-09-20T09:34:44.737Z,20.89
2022-09-20T09:35:54.824Z,20.86
2022-09-20T09:36:56.575Z,20.84
2022-09-20T09:37:58.995Z,20.82
2022-09-20T09:39:19.433Z,20.82
2022-09-20T09:40:21.127Z,20.78
2022-09-20T09:41:26.554Z,20.76
2022-09-20T09:42:28.917Z,20.73
2022-09-20T09:43:33.010Z,20.70
2022-09-20T09:44:35.505Z,20.67
2022-09-20T09:45:38.608Z,20.65
2022-09-20T09:46:40.348Z,20.60
2022-09-20T09:47:41.822Z,20.58
2022-09-20T09:48:43.456Z,20.53
2022-09-20T09:50:00.346Z,20.51
2022-09-20T09:51:11.218Z,20.46
2022-09-20T09:52:18.125Z,20.42
2022-09-20T09:53:21.492Z,20.42
2022-09-20T09:54:22.950Z,20.41
2022-09-20T09:55:27.242Z,20.41
2022-09-20T09:56:28.710Z,20.43
2022-09-20T09:57:36.583Z,20.42
2022-09-20T09:59:04.358Z,20.54
2022-09-20T10:00:19.471Z,20.66
2022-09-20T10:01:39.538Z,20.82
2022-09-20T10:02:56.375Z,21.06
2022-09-20T10:04:02.526Z,21.31
2022-09-20T10:05:12.115Z,21.55
2022-09-20T10:06:15.187Z,21.80
2022-09-20T10:07:43.073Z,22.01
2022-09-20T10:08:47.323Z,22.20
2022-09-20T10:09:48.890Z,22.30
2022-09-20T10:10:53.474Z,22.38
2022-09-20T10:11:58.681Z,22.42
2022-09-20T10:13:00.143Z,22.46
2022-09-20T10:14:31.128Z,22.46
2022-09-20T10:15:36.054Z,22.44
2022-09-20T10:16:41.424Z,22.45
2022-09-20T10:18:01.725Z,22.44
2022-09-20T10:19:12.602Z,22.46
2022-09-20T10:20:20.298Z,22.51
2022-09-20T10:21:21.747Z,22.56
2022-09-20T10:23:34.455Z,22.64
2022-09-20T10:24:30.953Z,22.75
2022-09-20T10:25:41.195Z,22.83
2022-09-20T10:26:54.706Z,22.83
2022-09-20T10:28:15.100Z,22.85
2022-09-20T10:29:19.350Z,22.81
2022-09-20T10:30:21.395Z,22.82
2022-09-20T10:31:25.753Z,22.89
2022-09-20T10:32:43.219Z,23.01
2022-09-20T10:34:03.621Z,23.19
2022-09-20T10:35:11.738Z,23.37
2022-09-20T10:36:31.540Z,23.59
2022-09-20T10:37:51.467Z,23.82
2022-09-20T10:39:02.062Z,24.10
2022-09-20T10:40:23.952Z,24.28
2022-09-20T10:42:02.820Z,24.51
2022-09-20T10:43:17.006Z,24.79
2022-09-20T10:44:18.811Z,25.02
2022-09-20T10:45:59.185Z,25.13
2022-09-20T10:47:06.948Z,25.36
2022-09-20T10:48:37.623Z,25.60
2022-09-20T10:49:39.014Z,25.69
2022-09-20T10:50:55.103Z,25.83
2022-09-20T10:52:06.396Z,26.02
2022-09-20T10:53:28.110Z,26.14
2022-09-20T10:54:32.495Z,26.18
2022-09-20T10:55:57.002Z,26.32
2022-09-20T10:57:13.662Z,26.42
2022-09-20T10:58:33.863Z,26.49
2022-09-20T10:59:44.240Z,26.54
2022-09-20T11:00:50.796Z,26.65
2022-09-20T11:01:58.195Z,26.80
2022-09-20T11:03:08.938Z,26.87
2022-09-20T11:04:13.825Z,26.88
2022-09-20T11:05:15.230Z,26.80
2022-09-20T11:06:37.980Z,26.65
2022-09-20T11:07:45.239Z,26.58
2022-09-20T11:08:50.755Z,26.44
2022-09-20T11:09:55.405Z,26.37
2022-09-20T11:11:05.845Z,26.31
2022-09-20T11:12:08.495Z,26.21
2022-09-20T11:13:20.127Z,26.24
2022-09-20T11:14:34.643Z,26.25
2022-09-20T11:15:38.831Z,26.20
2022-09-20T11:16:43.295Z,26.11
2022-09-20T11:17:54.018Z,26.01
2022-09-20T11:18:55.599Z,25.85
2022-09-20T11:20:08.022Z,25.78
2022-09-20T11:21:21.959Z,25.71
2022-09-20T11:22:43.691Z,25.59
2022-09-20T11:23:50.015Z,25.51
2022-09-20T11:24:52.710Z,25.40
2022-09-20T11:25:59.014Z,25.22
2022-09-20T11:27:14.848Z,25.00
2022-09-20T11:28:31.046Z,24.80
2022-09-20T11:29:43.946Z,24.64
2022-09-20T11:30:50.118Z,24.41
2022-09-20T11:31:51.773Z,24.24
2022-09-20T11:33:11.682Z,24.22
2022-09-20T11:34:25.839Z,24.12
2022-09-20T11:35:27.264Z,24.06
2022-09-20T11:36:40.963Z,23.97
2022-09-20T11:37:43.679Z,23.93
2022-09-20T11:38:53.496Z,23.87
2022-09-20T11:39:55.326Z,23.82
2022-09-20T11:41:02.159Z,23.77
2022-09-20T11:42:04.342Z,23.70
2022-09-20T11:43:06.442Z,23.59
2022-09-20T11:44:10.011Z,23.49
2022-09-20T11:45:11.791Z,23.44
2022-09-20T11:46:14.093Z,23.43
2022-09-20T11:47:42.897Z,23.31
2022-09-20T11:48:43.897Z,23.36
2022-09-20T11:49:54.492Z,23.32
2022-09-20T11:51:31.576Z,23.25
2022-09-20T11:52:52.913Z,23.14
2022-09-20T11:53:54.329Z,23.04
2022-09-20T11:55:22.095Z,22.95
2022-09-20T11:56:24.887Z,22.84
2022-09-20T11:57:26.402Z,22.81
2022-09-20T11:58:28.086Z,22.76
2022-09-20T11:59:36.468Z,22.74
2022-09-20T12:00:38.823Z,22.68
2022-09-20T12:01:40.907Z,22.63
2022-09-20T12:02:48.854Z,22.57
2022-09-20T12:03:50.940Z,22.53
2022-09-20T12:04:53.461Z,22.40
2022-09-20T12:05:58.787Z,22.36
2022-09-20T12:07:10.342Z,22.34
2022-09-20T12:08:18.592Z,22.27
2022-09-20T12:09:26.586Z,22.26
2022-09-20T12:10:28.771Z,22.26
2022-09-20T12:11:31.483Z,22.27
2022-09-20T12:12:39.586Z,22.30
2022-09-20T12:13:41.922Z,22.32
2022-09-20T12:14:43.512Z,22.33
2022-09-20T12:15:44.983Z,22.35
2022-09-20T12:16:47.301Z,22.33
2022-09-20T12:17:49.659Z,22.32
2022-09-20T12:18:54.295Z,22.23
2022-09-20T12:19:55.742Z,22.28
2022-09-20T12:21:16.509Z,22.27
2022-09-20T12:22:26.918Z,22.23
2022-09-20T12:23:40.865Z,22.19
2022-09-20T12:24:45.500Z,22.16
2022-09-20T12:26:00.454Z,22.11
2022-09-20T12:27:20.544Z,22.05
2022-09-20T12:28:22.022Z,22.02
2022-09-20T12:29:23.469Z,21.98
2022-09-20T12:30:24.952Z,21.98
2022-09-20T12:31:29.454Z,21.95
2022-09-20T12:32:32.318Z,21.92
2022-09-20T12:33:53.775Z,21.91
2022-09-20T12:34:55.314Z,21.90
2022-09-20T12:36:00.253Z,21.90
2022-09-20T12:37:03.435Z,21.89
2022-09-20T12:38:27.765Z,21.88
2022-09-20T12:39:35.127Z,21.87
2022-09-20T12:40:36.823Z,21.87
2022-09-20T12:41:50.616Z,21.88
2022-09-20T12:42:56.767Z,21.88
2022-09-20T12:44:02.685Z,21.86
2022-09-20T12:45:05.423Z,21.87
2022-09-20T12:46:11.862Z,21.86
2022-09-20T12:47:13.609Z,21.84
2022-09-20T12:48:17.982Z,21.73
2022-09-20T12:49:40.931Z,21.66
2022-09-20T12:51:00.973Z,21.60
2022-09-20T12:52:21.219Z,21.59
2022-09-20T12:53:22.663Z,21.59
2022-09-20T12:54:24.776Z,21.58
2022-09-20T12:55:26.708Z,21.53
2022-09-20T12:56:28.827Z,21.48
2022-09-20T12:57:32.222Z,21.44
2022-09-20T12:58:33.614Z,21.38
2022-09-20T12:59:35.097Z,21.35
2022-09-20T13:00:36.819Z,21.33
2022-09-20T13:01:38.888Z,21.30
2022-09-20T13:02:55.982Z,21.26
2022-09-20T13:04:17.364Z,21.24
2022-09-20T13:05:32.218Z,21.21
2022-09-20T13:06:33.881Z,21.19
2022-09-20T13:08:02.886Z,21.17
2022-09-20T13:09:08.590Z,21.16
2022-09-20T13:10:27.112Z,21.14
2022-09-20T13:11:44.830Z,21.12
2022-09-20T13:12:49.490Z,21.10
2022-09-20T13:14:09.037Z,21.09
2022-09-20T13:15:11.592Z,21.06
2022-09-20T13:16:20.138Z,21.03
2022-09-20T13:17:29.917Z,21.00
2022-09-20T13:18:31.421Z,20.98
2022-09-20T13:19:39.134Z,20.95
2022-09-20T13:20:40.622Z,20.94
2022-09-20T13:21:44.458Z,20.89
2022-09-20T13:22:45.943Z,20.88
2022-09-20T13:23:50.892Z,20.84
2022-09-20T13:24:55.159Z,20.82
2022-09-20T13:25:57.642Z,20.79
2022-09-20T13:27:06.373Z,20.77
2022-09-20T13:28:09.678Z,20.77
2022-09-20T13:29:19.251Z,20.76
2022-09-20T13:30:21.763Z,20.76
2022-09-20T13:31:31.575Z,20.76
2022-09-20T13:32:34.555Z,20.75
2022-09-20T13:33:36.094Z,20.76
2022-09-20T13:34:37.611Z,20.75
2022-09-20T13:35:40.199Z,20.76
2022-09-20T13:36:41.656Z,20.74
2022-09-20T13:37:55.497Z,20.73
2022-09-20T13:38:57.446Z,20.73
2022-09-20T13:39:59.405Z,20.71
2022-09-20T13:41:06.294Z,20.72
2022-09-20T13:42:09.161Z,20.70
2022-09-20T13:43:24.649Z,20.71
2022-09-20T13:44:26.567Z,20.69
2022-09-20T13:45:31.902Z,20.66
2022-09-20T13:46:35.493Z,20.65
2022-09-20T13:47:41.003Z,20.63
2022-09-20T13:48:42.809Z,20.63
2022-09-20T13:49:44.291Z,20.58
2022-09-20T13:50:49.082Z,20.55
2022-09-20T13:51:52.921Z,20.54
2022-09-20T13:52:55.339Z,20.53
2022-09-20T13:54:16.718Z,20.51
2022-09-20T13:55:22.211Z,20.50
2022-09-20T13:56:25.565Z,20.44
2022-09-20T13:57:27.580Z,20.39
2022-09-20T13:58:29.586Z,20.37
2022-09-20T13:59:35.342Z,20.33
2022-09-20T14:00:37.931Z,20.28
2022-09-20T14:01:39.695Z,20.27
2022-09-20T14:02:41.158Z,20.27
2022-09-20T14:03:43.937Z,20.26
2022-09-20T14:04:45.474Z,20.24
2022-09-20T14:05:48.035Z,20.18
2022-09-20T14:06:49.880Z,20.20
2022-09-20T14:07:51.344Z,20.16
2022-09-20T14:08:52.805Z,20.13
2022-09-20T14:09:54.598Z,20.14
2022-09-20T14:11:12.164Z,20.17
2022-09-20T14:12:14.174Z,20.20
2022-09-20T14:13:15.674Z,20.20
2022-09-20T14:14:21.396Z,20.20
2022-09-20T14:15:23.604Z,20.20
2022-09-20T14:16:29.043Z,20.20
2022-09-20T14:17:31.185Z,20.20
2022-09-20T14:18:32.700Z,20.22
2022-09-20T14:19:37.172Z,20.23
2022-09-20T14:20:38.769Z,20.25
2022-09-20T14:21:40.216Z,20.26
2022-09-20T14:22:41.721Z,20.23
2022-09-20T14:23:58.090Z,20.32
2022-09-20T14:25:03.333Z,20.34
2022-09-20T14:26:08.317Z,20.36
2022-09-20T14:27:22.040Z,20.37
2022-09-20T14:28:28.040Z,20.39
2022-09-20T14:29:36.033Z,20.42
2022-09-20T14:30:37.575Z,20.43
2022-09-20T14:31:39.075Z,20.45